OIZI  Iran Shahr Airport

Add Bookmark

Iran

Status
Operational
Latitude Longitude
27° 14' 9" N 60° 43' 12" E
27.236099 60.720001
Local (DST + 5) UTC (GMT + 4)
Sep 30, 2014 03:18 Sep 30, 2014 11:48
Sunrise-Sunset Local UTC
Begin Civil Twilight 04:54 01:24
Sunrise 05:18 01:48
Sunset 05:15 13:45
End Civil Twilight 05:39 14:09

Current Weather

METAR Observed VFR
OIZI 301100Z 22008KT 9999 FEW045TCU FEW200 40/08 Q1009 Tue, Sep 30, 2014 @ 11:00 UTC
(48 Minutes ago)
Visual Flight Rules
Wind Visibility Clouds Conditions
220° at 8 knots (15 kph) 10 km or more
  • Few at 4,500' AGL
  • Few at 20,000' AGL
  • No significant weather
Temperatures Readings Precipitation
Current Temp 40°C (104°F)
Dewpoint 8°C (46°F)
Humidity 14%
Altimeter 29.79"Hg
Sea Level Pressure 1009mb
Field Elevation 1938.98'
None Recorded

24 Hour Weather History

Loading
-

24 Hour Weather Graphs

Loading
-

CheckWX.com is intended as a tool to help pilots better visualize weather data. It is not intended as a substitute for an official weather briefing obtained from a Flight Service Station. CheckWX.com does not meet the FAA requirements for an official pre-flight weather briefing. Therefore, it's important that pilots still call and obtain an official FSS pre-flight weather briefing.